Flight Track Log - Related Links

Times and Time Zones

All times are in EDT time to prevent confusion due to time zone crossing. See the SAA203 flight status page for this flight to view local times or setup timezone preferences in your user account.

Time Position Orientation Groundspeed Altitude Reporting Facility
EDT Latitude Longitude Course Direction KTS MPH feet Rate Location/Type
Sun 02:49:07 PM -26.0121 28.2378 323° Northwest 242 278 7,300  Level FlightAware ADS-B (FAWK / WKF)
Sun 02:49:32 PM -25.9922 28.2214 324° Northwest 258 297 7,400 188 Climbing FlightAware ADS-B (FAWK / WKF)
Sun 02:49:39 PM -25.9823 28.2135 325° Northwest 265 305 7,400 300 Level FlightAware ADS-B
Sun 02:49:52 PM -25.9684 28.2026 325° Northwest 278 320 7,500 400 Climbing FlightAware ADS-B (FAWK / WKF)
Sun 02:50:09 PM -25.9502 28.1885 326° Northwest 293 337 7,600 300 Climbing FlightAware ADS-B
Sun 02:50:12 PM -25.9471 28.1861 325° Northwest 297 342 7,600 400 Level FlightAware ADS-B (FAWK / WKF)
Sun 02:50:24 PM -25.9331 28.1753 326° Northwest 306 352 7,700 1,143 Climbing FlightAware ADS-B
Sun 02:50:33 PM -25.9247 28.1690 326° Northwest 309 356 8,000 1,714 Climbing FlightAware ADS-B (FAWK / WKF)
Sun 02:50:38 PM -25.9166 28.1629 327° Northwest 310 357 8,100 1,800 Climbing FlightAware ADS-B
Sun 02:50:53 PM -25.8982 28.1493 326° Northwest 312 359 8,600 1,875 Climbing FlightAware ADS-B (FAWK / WKF)
Sun 02:50:54 PM -25.8974 28.1488 327° Northwest 312 359 8,600 1,667 Level FlightAware ADS-B
Sun 02:51:11 PM -25.8761 28.1328 326° Northwest 315 362 9,100 1,579 Climbing FlightAware ADS-B
Sun 02:51:13 PM -25.8753 28.1322 326° Northwest 316 364 9,100 1,500 Level FlightAware ADS-B (FAWK / WKF)
Sun 02:51:27 PM -25.8574 28.1187 326° Northwest 319 367 9,500 1,895 Climbing FlightAware ADS-B
Sun 02:51:32 PM -25.8508 28.1137 326° Northwest 322 371 9,700 1,636 Climbing FlightAware ADS-B (FAWK / WKF)
Sun 02:51:38 PM -25.8438 28.1083 326° Northwest 322 371 9,800 1,421 Climbing FlightAware ADS-B
Sun 02:52:10 PM -25.8039 28.0777 326° Northwest 331 381 10,600 1,371 Climbing FlightAware ADS-B
Sun 02:52:13 PM -25.8006 28.0752 325° Northwest 336 387 10,600 522 Level FlightAware ADS-B (FAWK / WKF)
Sun 02:52:33 PM -25.7770 28.0513 308° West 348 400 10,800 692 Climbing FlightAware ADS-B (FAWK / WKF)
Sun 02:52:39 PM -25.7721 28.0421 299° West 350 403 10,900 947 Climbing FlightAware ADS-B
Sun 02:53:11 PM -25.7463 27.9897 300° West 372 428 11,400 968 Climbing FlightAware ADS-B
Sun 02:53:41 PM -25.7192 27.9382 301° West 390 449 11,900 1,300 Climbing FlightAware ADS-B
Sun 02:54:11 PM -25.6917 27.8859 301° West 397 457 12,700 1,548 Climbing FlightAware ADS-B
Sun 02:54:12 PM -25.6935 27.8893 300° West 397 457 12,700 2,000 Level FlightAware ADS-B (FAWK / WKF)
Sun 02:54:41 PM -25.6638 27.8326 301° West 398 458 13,700 2,000 Climbing FlightAware ADS-B
Sun 02:54:48 PM -25.6578 27.8212 300° West 399 459 13,900 1,200 Climbing FlightAware ADS-B (FAWK / WKF)
Sun 02:55:06 PM -25.6461 27.7989 301° West 401 461 14,200 1,636 Climbing FlightAware ADS-B
Sun 02:55:32 PM -25.6173 27.7440 300° West 406 467 15,100 1,818 Climbing FlightAware ADS-B (FAWK / WKF)
Sun 02:55:39 PM -25.6101 27.7301 300° West 408 470 15,200 1,622 Climbing FlightAware ADS-B
Sun 02:56:09 PM -25.5812 27.6752 301° West 410 472 16,100 1,694 Climbing FlightAware ADS-B
Sun 02:57:04 PM -25.5327 27.5830 300° West 418 481 17,600 1,451 Climbing FlightAware ADS-B
Sun 02:57:40 PM -25.4983 27.5177 301° West 411 473 18,300 30 Climbing FlightAware ADS-B
Sun 03:00:00 PM -25.4223 27.3981 305° West  Level Estimated
Sun 03:01:00 PM -25.3897 27.3470 305° West  Level Estimated
Sun 03:02:00 PM -25.3570 27.2959 305° West  Level Estimated
Sun 03:03:00 PM -25.3239 27.2441 305° West  Level Estimated
Sun 03:04:00 PM -25.2909 27.1923 305° West  Level Estimated
Sun 03:05:00 PM -25.2577 27.1406 305° West  Level Estimated
Sun 03:06:00 PM -25.2246 27.0889 305° West  Level Estimated
Sun 03:07:00 PM -25.1915 27.0372 305° West  Level Estimated
Sun 03:08:00 PM -25.1583 26.9856 305° West  Level Estimated
Sun 03:09:00 PM -25.1251 26.9340 305° West  Level Estimated
Sun 03:10:00 PM -25.0919 26.8824 305° West  Level Estimated
Sun 03:11:00 PM -25.0587 26.8308 305° West  Level Estimated
Sun 03:12:00 PM -25.0254 26.7793 305° West  Level Estimated
Sun 03:13:00 PM -24.9922 26.7278 305° West  Level Estimated
Sun 03:14:00 PM -24.9589 26.6763 305° West  Level Estimated
Sun 03:15:00 PM -24.9256 26.6249 306° West  Level Estimated
Sun 03:16:00 PM -24.8923 26.5735 306° West  Level Estimated
Sun 03:17:00 PM -24.8590 26.5221 306° West  Level Estimated
Sun 03:18:00 PM -24.8256 26.4707 306° West  Level Estimated
Sun 03:19:00 PM -24.7923 26.4194 306° West  Level Estimated
Sun 03:20:00 PM -24.7589 26.3681 306° West  Level Estimated
Sun 03:21:00 PM -24.7255 26.3168 306° West  Level Estimated
Sun 03:22:00 PM -24.6921 26.2655 306° West  Level Estimated
Sun 03:23:00 PM -24.6586 26.2143 306° West  Level Estimated
Sun 03:24:00 PM -24.6252 26.1631 306° West  Level Estimated
Sun 03:25:00 PM -24.5917 26.1119 306° West  Level Estimated
Sun 03:26:00 PM -24.5583 26.0608 306° West  Level Estimated
Sun 03:27:00 PM -24.5247 26.0097 306° West  Level Estimated
Sun 03:28:00 PM -24.4912 25.9586 306° West  Level Estimated
Sun 03:29:00 PM -24.4577 25.9075 306° West  Level Estimated
Sun 03:30:00 PM -24.4241 25.8565 306° West  Level Estimated
Sun 03:31:00 PM -24.3906 25.8055 306° West  Level Estimated
Sun 03:32:00 PM -24.3570 25.7545 306° West  Level Estimated
Sun 03:33:00 PM -24.3234 25.7036 306° West  Level Estimated
Sun 03:34:00 PM -24.2897 25.6526 306° West  Level Estimated
Sun 03:35:00 PM -24.2561 25.6017 306° West  Level Estimated
Sun 03:36:00 PM -24.2225 25.5509 306° West  Level Estimated
Sun 03:37:00 PM -24.1888 25.5000 306° West  Level Estimated
Sun 03:38:00 PM -24.1551 25.4492 306° West  Level Estimated
Sun 03:39:00 PM -24.1214 25.3984 306° West  Level Estimated
Sun 03:40:00 PM -24.0877 25.3477 306° West  Level Estimated
Sun 03:41:00 PM -24.0539 25.2969 306° West  Level Estimated
Sun 03:42:00 PM -24.0202 25.2462 306° West  Level Estimated
Sun 03:43:00 PM -23.9864 25.1955 306° West  Level Estimated
Sun 03:44:00 PM -23.9526 25.1449 306° West  Level Estimated
Sun 03:45:00 PM -23.9188 25.0942 306° West  Level Estimated
Sun 03:46:00 PM -23.8850 25.0436 306° West  Level Estimated
Sun 03:47:00 PM -23.8511 24.9931 306° West  Level Estimated
Sun 03:48:00 PM -23.8173 24.9425 306° West  Level Estimated
Sun 03:49:00 PM -23.7834 24.8920 306° West  Level Estimated
Sun 03:50:00 PM -23.7495 24.8415 306° West  Level Estimated
Sun 03:51:00 PM -23.7156 24.7910 306° West  Level Estimated
Sun 03:52:00 PM -23.6817 24.7406 306° West  Level Estimated
Sun 03:53:00 PM -23.6478 24.6901 306° West  Level Estimated
Sun 03:54:00 PM -23.6138 24.6397 306° West  Level Estimated
Sun 03:55:00 PM -23.5798 24.5894 306° West  Level Estimated
Sun 03:56:00 PM -23.5459 24.5390 306° West  Level Estimated
Sun 03:57:00 PM -23.5118 24.4887 306° West  Level Estimated
Sun 03:58:00 PM -23.4778 24.4384 306° West  Level Estimated
Sun 03:59:00 PM -23.4438 24.3882 306° West  Level Estimated
Sun 04:00:00 PM -23.4097 24.3379 306° West  Level Estimated
Sun 04:01:00 PM -23.3757 24.2877 306° West  Level Estimated
Sun 04:02:00 PM -23.3416 24.2375 306° West  Level Estimated
Sun 04:03:00 PM -23.3075 24.1874 307° West  Level Estimated
Sun 04:04:00 PM -23.2734 24.1373 307° West  Level Estimated
Sun 04:05:00 PM -23.2392 24.0871 307° West  Level Estimated
Sun 04:06:00 PM -23.2051 24.0371 307° West  Level Estimated
Sun 04:07:00 PM -23.1709 23.9870 307° West  Level Estimated
Sun 04:08:00 PM -23.1368 23.9370 307° West  Level Estimated
Sun 04:09:00 PM -23.1026 23.8870 307° West  Level Estimated
Sun 04:10:00 PM -23.0683 23.8370 307° West  Level Estimated
Sun 04:11:00 PM -23.0341 23.7870 307° West  Level Estimated
Sun 04:12:00 PM -22.9999 23.7371 307° West  Level Estimated
Sun 04:13:00 PM -22.9656 23.6872 307° West  Level Estimated
Sun 04:14:00 PM -22.9314 23.6373 307° West  Level Estimated
Sun 04:15:00 PM -22.8971 23.5875 307° West  Level Estimated
Sun 04:16:00 PM -22.8628 23.5376 307° West  Level Estimated
Sun 04:17:00 PM -22.8284 23.4878 307° West  Level Estimated
Sun 04:18:00 PM -22.7941 23.4380 307° West  Level Estimated
Sun 04:19:00 PM -22.7598 23.3883 307° West  Level Estimated
Sun 04:20:00 PM -22.7254 23.3386 307° West  Level Estimated
Sun 04:21:00 PM -22.6910 23.2889 307° West  Level Estimated
Sun 04:22:00 PM -22.6566 23.2392 307° West  Level Estimated
Sun 04:23:00 PM -22.6222 23.1895 307° West  Level Estimated
Sun 04:24:00 PM -22.5878 23.1399 307° West  Level Estimated
Sun 04:25:00 PM -22.5533 23.0903 307° West  Level Estimated
Sun 04:26:00 PM -22.5189 23.0407 307° West  Level Estimated
Sun 04:27:00 PM -22.4844 22.9912 307° West  Level Estimated
Sun 04:28:00 PM -22.4499 22.9416 307° West  Level Estimated
Sun 04:29:00 PM -22.4154 22.8921 307° West  Level Estimated
Sun 04:30:00 PM -22.3809 22.8426 307° West  Level Estimated
Sun 04:31:00 PM -22.3464 22.7932 307° West  Level Estimated
Sun 04:32:00 PM -22.3118 22.7437 307° West  Level Estimated
Sun 04:33:00 PM -22.2773 22.6943 307° West  Level Estimated
Sun 04:34:00 PM -22.2427 22.6450 307° West  Level Estimated
Sun 04:35:00 PM -22.2081 22.5956 307° West  Level Estimated
Sun 04:36:00 PM -22.1735 22.5463 307° West  Level Estimated
Sun 04:37:00 PM -22.1388 22.4970 307° West  Level Estimated
Sun 04:38:00 PM -22.1042 22.4477 307° West  Level Estimated
Sun 04:39:00 PM -22.0696 22.3984 307° West  Level Estimated
Sun 04:40:00 PM -22.0349 22.3492 307° West  Level Estimated
Sun 04:41:00 PM -22.0002 22.3000 307° West  Level Estimated
Sun 04:42:00 PM -21.9655 22.2508 307° West  Level Estimated
Sun 04:43:00 PM -21.9308 22.2016 307° West  Level Estimated
Sun 04:44:00 PM -21.8961 22.1525 307° West  Level Estimated
Sun 04:45:00 PM -21.8613 22.1033 307° West  Level Estimated
Sun 04:46:00 PM -21.8266 22.0543 307° West  Level Estimated
Sun 04:47:00 PM -21.7918 22.0052 307° West  Level Estimated
Sun 04:48:00 PM -21.7570 21.9561 307° West  Level Estimated
Sun 04:49:00 PM -21.7222 21.9071 307° West  Level Estimated
Sun 04:50:00 PM -21.6874 21.8581 307° West  Level Estimated
Sun 04:51:00 PM -21.6526 21.8092 307° West  Level Estimated
Sun 04:52:00 PM -21.6178 21.7602 307° West  Level Estimated
Sun 04:53:00 PM -21.5829 21.7113 307° West  Level Estimated
Sun 04:54:00 PM -21.5480 21.6624 307° West  Level Estimated
Sun 04:55:00 PM -21.5131 21.6135 307° West  Level Estimated
Sun 04:56:00 PM -21.4783 21.5646 308° West  Level Estimated
Sun 04:57:00 PM -21.4433 21.5158 308° West  Level Estimated
Sun 04:58:00 PM -21.4084 21.4670 308° West  Level Estimated
Sun 04:59:00 PM -21.3735 21.4182 308° West  Level Estimated
Sun 05:00:00 PM -21.3385 21.3694 308° West  Level Estimated
Sun 05:01:00 PM -21.3035 21.3207 308° West  Level Estimated
Sun 05:02:00 PM -21.2686 21.2720 308° West  Level Estimated
Sun 05:03:00 PM -21.2336 21.2233 308° West  Level Estimated
Sun 05:04:00 PM -21.1985 21.1746 308° West  Level Estimated
Sun 05:05:00 PM -21.1635 21.1260 308° West  Level Estimated
Sun 05:06:00 PM -21.1285 21.0773 308° West  Level Estimated
Sun 05:07:00 PM -21.0934 21.0287 308° West  Level Estimated
Sun 05:08:00 PM -21.0584 20.9802 308° West  Level Estimated
Sun 05:09:00 PM -21.0233 20.9316 308° West  Level Estimated
Sun 05:10:00 PM -20.9882 20.8831 308° West  Level Estimated
Sun 05:11:00 PM -20.9531 20.8346 308° West  Level Estimated
Sun 05:12:00 PM -20.9180 20.7861 308° West  Level Estimated
Sun 05:13:00 PM -20.8828 20.7376 308° West  Level Estimated
Sun 05:14:00 PM -20.8477 20.6892 308° West  Level Estimated
Sun 05:15:00 PM -20.8125 20.6408 308° West  Level Estimated
Sun 05:16:00 PM -20.7773 20.5924 308° West  Level Estimated
Sun 05:17:00 PM -20.7422 20.5440 308° West  Level Estimated
Sun 05:18:00 PM -20.7069 20.4956 308° West  Level Estimated
Sun 05:19:00 PM -20.6717 20.4473 308° West  Level Estimated
Sun 05:20:00 PM -20.6365 20.3990 308° West  Level Estimated
Sun 05:21:00 PM -20.6013 20.3507 308° West  Level Estimated
Sun 05:22:00 PM -20.5660 20.3025 308° West  Level Estimated
Sun 05:23:00 PM -20.5307 20.2542 308° West  Level Estimated
Sun 05:24:00 PM -20.4954 20.2060 308° West  Level Estimated
Sun 05:25:00 PM -20.4602 20.1578 308° West  Level Estimated
Sun 05:26:00 PM -20.4249 20.1096 308° West  Level Estimated
Sun 05:27:00 PM -20.3895 20.0615 308° West  Level Estimated
Sun 05:28:00 PM -20.3542 20.0133 308° West  Level Estimated
Sun 05:29:00 PM -20.3188 19.9652 308° West  Level Estimated
Sun 05:30:00 PM -20.2835 19.9172 308° West  Level Estimated
Sun 05:31:00 PM -20.2481 19.8691 308° West  Level Estimated
Sun 05:32:00 PM -20.2127 19.8211 308° West  Level Estimated
Sun 05:33:00 PM -20.1773 19.7730 308° West  Level Estimated
Sun 05:34:00 PM -20.1419 19.7250 308° West  Level Estimated
Sun 05:35:00 PM -20.1065 19.6770 308° West  Level Estimated
Sun 05:36:00 PM -20.0710 19.6291 308° West  Level Estimated
Sun 05:37:00 PM -20.0356 19.5812 308° West  Level Estimated
Sun 05:38:00 PM -20.0001 19.5333 308° West  Level Estimated
Sun 05:39:00 PM -19.9646 19.4854 308° West  Level Estimated
Sun 05:40:00 PM -19.9291 19.4375 308° West  Level Estimated
Sun 05:41:00 PM -19.8936 19.3897 308° West  Level Estimated
Sun 05:42:00 PM -19.8581 19.3418 308° West  Level Estimated
Sun 05:43:00 PM -19.8226 19.2940 308° West  Level Estimated
Sun 05:44:00 PM -19.7870 19.2463 308° West  Level Estimated
Sun 05:45:00 PM -19.7515 19.1985 308° West  Level Estimated
Sun 05:46:00 PM -19.7159 19.1507 308° West  Level Estimated
Sun 05:47:00 PM -19.6803 19.1030 308° West  Level Estimated
Sun 05:48:00 PM -19.6447 19.0553 308° West  Level Estimated
Sun 05:49:00 PM -19.6091 19.0077 308° West  Level Estimated
Sun 05:50:00 PM -19.5735 18.9600 308° West  Level Estimated
Sun 05:51:00 PM -19.5379 18.9124 308° West  Level Estimated
Sun 05:52:00 PM -19.5022 18.8648 308° West  Level Estimated
Sun 05:53:00 PM -19.4666 18.8172 308° West  Level Estimated
Sun 05:54:00 PM -19.4309 18.7696 308° West  Level Estimated
Sun 05:55:00 PM -19.3952 18.7220 308° West  Level Estimated
Sun 05:56:00 PM -19.3595 18.6745 309° West  Level Estimated
Sun 05:57:00 PM -19.3238 18.6270 309° West  Level Estimated
Sun 05:58:00 PM -19.2881 18.5795 309° West  Level Estimated
Sun 05:59:00 PM -19.2524 18.5320 309° West  Level Estimated
Sun 06:00:00 PM -19.2166 18.4846 309° West  Level Estimated
Sun 06:01:00 PM -19.1809 18.4372 309° West  Level Estimated
Sun 06:02:00 PM -19.1451 18.3898 309° West  Level Estimated
Sun 06:03:00 PM -19.1093 18.3424 309° West  Level Estimated
Sun 06:04:00 PM -19.0735 18.2950 309° West  Level Estimated
Sun 06:05:00 PM -19.0377 18.2477 309° West  Level Estimated
Sun 06:06:00 PM -19.0019 18.2004 309° West  Level Estimated
Sun 06:07:00 PM -18.9661 18.1531 309° West  Level Estimated
Sun 06:08:00 PM -18.9303 18.1058 309° West  Level Estimated
Sun 06:09:00 PM -18.8944 18.0585 309° West  Level Estimated
Sun 06:10:00 PM -18.8585 18.0113 309° West  Level Estimated
Sun 06:11:00 PM -18.8227 17.9641 309° West  Level Estimated
Sun 06:12:00 PM -18.7868 17.9169 309° West  Level Estimated
Sun 06:13:00 PM -18.7509 17.8697 309° West  Level Estimated
Sun 06:14:00 PM -18.7150 17.8225 309° West  Level Estimated
Sun 06:15:00 PM -18.6790 17.7754 309° West  Level Estimated
Sun 06:16:00 PM -18.6431 17.7283 309° West  Level Estimated
Sun 06:17:00 PM -18.6072 17.6812 309° West  Level Estimated
Sun 06:18:00 PM -18.5712 17.6341 309° West  Level Estimated
Sun 06:19:00 PM -18.5352 17.5870 309° West  Level Estimated
Sun 06:20:00 PM -18.4993 17.5400 309° West  Level Estimated
Sun 06:21:00 PM -18.4632 17.4930 309° West  Level Estimated
Sun 06:22:00 PM -18.4272 17.4459 309° West  Level Estimated
Sun 06:23:00 PM -18.3912 17.3990 309° West  Level Estimated
Sun 06:24:00 PM -18.3552 17.3520 309° West  Level Estimated
Sun 06:25:00 PM -18.3192 17.3051 309° West  Level Estimated
Sun 06:26:00 PM -18.2831 17.2581 309° West  Level Estimated
Sun 06:27:00 PM -18.2470 17.2112 309° West  Level Estimated
Sun 06:28:00 PM -18.2110 17.1644 309° West  Level Estimated
Sun 06:29:00 PM -18.1749 17.1175 309° West  Level Estimated
Sun 06:30:00 PM -18.1388 17.0706 309° West  Level Estimated
Sun 06:31:00 PM -18.1027 17.0238 309° West  Level Estimated
Sun 06:32:00 PM -18.0666 16.9770 309° West  Level Estimated
Sun 06:33:00 PM -18.0304 16.9302 309° West  Level Estimated
Sun 06:34:00 PM -17.9943 16.8834 309° West  Level Estimated
Sun 06:35:00 PM -17.9582 16.8367 309° West  Level Estimated
Sun 06:36:00 PM -17.9220 16.7900 309° West  Level Estimated
Sun 06:37:00 PM -17.8858 16.7432 309° West  Level Estimated
Sun 06:38:00 PM -17.8496 16.6966 309° West  Level Estimated
Sun 06:39:00 PM -17.8134 16.6499 309° West  Level Estimated
Sun 06:40:00 PM -17.7772 16.6032 309° West  Level Estimated
Sun 06:41:00 PM -17.7410 16.5566 309° West  Level Estimated
Sun 06:42:00 PM -17.7048 16.5100 309° West  Level Estimated
Sun 06:43:00 PM -17.6685 16.4634 309° West  Level Estimated
Sun 06:44:00 PM -17.6323 16.4168 309° West  Level Estimated
Sun 06:45:00 PM -17.5960 16.3703 309° West  Level Estimated
Sun 06:46:00 PM -17.5597 16.3237 309° West  Level Estimated
Sun 06:47:00 PM -17.5235 16.2772 309° West  Level Estimated
Sun 06:48:00 PM -17.4872 16.2307 309° West  Level Estimated
Sun 06:49:00 PM -17.4508 16.1842 309° West  Level Estimated
Sun 06:50:00 PM -17.4145 16.1377 309° West  Level Estimated
Sun 06:51:00 PM -17.3782 16.0913 309° West  Level Estimated
Sun 06:52:00 PM -17.3419 16.0448 309° West  Level Estimated
Sun 06:53:00 PM -17.3055 15.9984 309° West  Level Estimated
Sun 06:54:00 PM -17.2691 15.9520 309° West  Level Estimated
Sun 06:55:00 PM -17.2328 15.9057 309° West  Level Estimated
Sun 06:56:00 PM -17.1964 15.8593 309° West  Level Estimated
Sun 06:57:00 PM -17.1600 15.8130 309° West  Level Estimated
Sun 06:58:00 PM -17.1236 15.7667 309° West  Level Estimated
Sun 06:59:00 PM -17.0872 15.7204 309° West  Level Estimated
Sun 07:00:00 PM -17.0508 15.6741 309° West  Level Estimated
Sun 07:01:00 PM -17.0143 15.6278 309° West  Level Estimated
Sun 07:02:00 PM -16.9779 15.5815 309° West  Level Estimated
Sun 07:03:00 PM -16.9414 15.5353 309° West  Level Estimated
Sun 07:04:00 PM -16.9050 15.4891 310° West  Level Estimated
Sun 07:05:00 PM -16.8685 15.4429 310° West  Level Estimated
Sun 07:06:00 PM -16.8320 15.3967 310° West  Level Estimated
Sun 07:07:00 PM -16.7955 15.3506 310° West  Level Estimated
Sun 07:08:00 PM -16.7590 15.3044 310° West  Level Estimated
Sun 07:09:00 PM -16.7225 15.2583 310° West  Level Estimated
Sun 07:10:00 PM -16.6860 15.2122 310° West  Level Estimated
Sun 07:11:00 PM -16.6494 15.1661 310° West  Level Estimated
Sun 07:12:00 PM -16.6129 15.1201 310° West  Level Estimated
Sun 07:13:00 PM -16.5763 15.0740 310° West  Level Estimated
Sun 07:14:00 PM -16.5397 15.0280 310° West  Level Estimated
Sun 07:15:00 PM -16.5032 14.9819 310° West  Level Estimated
Sun 07:16:00 PM -16.4666 14.9359 310° West  Level Estimated
Sun 07:17:00 PM -16.4300 14.8900 310° West  Level Estimated
Sun 07:18:00 PM -16.3934 14.8440 310° West  Level Estimated
Sun 07:19:00 PM -16.3568 14.7980 310° West  Level Estimated
Sun 07:20:00 PM -16.3201 14.7521 310° West  Level Estimated
Sun 07:21:00 PM -16.2835 14.7062 310° West  Level Estimated
Sun 07:22:00 PM -16.2468 14.6603 310° West  Level Estimated
Sun 07:23:00 PM -16.2102 14.6144 310° West  Level Estimated
Sun 07:24:00 PM -16.1735 14.5686 310° West  Level Estimated
Sun 07:25:00 PM -16.1368 14.5227 310° West  Level Estimated
Sun 07:26:00 PM -16.1001 14.4769 310° West  Level Estimated
Sun 07:27:00 PM -16.0635 14.4311 310° West  Level Estimated
Sun 07:28:00 PM -16.0268 14.3853 310° West  Level Estimated
Sun 07:29:00 PM -15.9900 14.3395 310° West  Level Estimated
Sun 07:30:00 PM -15.9533 14.2937 310° West  Level Estimated
Sun 07:31:00 PM -15.9166 14.2480 310° West  Level Estimated
Sun 07:32:00 PM -15.8798 14.2023 310° West  Level Estimated
Sun 07:33:00 PM -15.8431 14.1566 310° West  Level Estimated
Sun 07:34:00 PM -15.8063 14.1109 310° West  Level Estimated
Sun 07:35:00 PM -15.7695 14.0652 310° West  Level Estimated
Sun 07:36:00 PM -15.7327 14.0195 310° West  Level Estimated
Sun 07:37:00 PM -15.6960 13.9739 310° West  Level Estimated
Sun 07:38:00 PM -15.6592 13.9283 310° West  Level Estimated
Sun 07:39:00 PM -15.6223 13.8826 310° West  Level Estimated
Sun 07:40:00 PM -15.5855 13.8370 310° West  Level Estimated
Sun 07:41:00 PM -15.5487 13.7915 310° West  Level Estimated
Sun 07:42:00 PM -15.5119 13.7459 310° West  Level Estimated
Sun 07:43:00 PM -15.4750 13.7003 310° West  Level Estimated
Sun 07:44:00 PM -15.4381 13.6548 310° West  Level Estimated
Sun 07:45:00 PM -15.4013 13.6093 310° West  Level Estimated
Sun 07:46:00 PM -15.3644 13.5638 310° West  Level Estimated
Sun 07:47:00 PM -15.3275 13.5183 310° West  Level Estimated
Sun 07:48:00 PM -15.2906 13.4729 310° West  Level Estimated
Sun 07:49:00 PM -15.2537 13.4274 310° West  Level Estimated
Sun 07:50:00 PM -15.2168 13.3820 310° West  Level Estimated
Sun 07:51:00 PM -15.1799 13.3366 310° West  Level Estimated
Sun 07:52:00 PM -15.1429 13.2912 310° West  Level Estimated
Sun 07:53:00 PM -15.1060 13.2458 310° West  Level Estimated
Sun 07:54:00 PM -15.0690 13.2004 310° West  Level Estimated
Sun 07:55:00 PM -15.0321 13.1550 310° West  Level Estimated
Sun 07:56:00 PM -14.9951 13.1097 310° West  Level Estimated
Sun 07:57:00 PM -14.9581 13.0644 310° West  Level Estimated
Sun 07:58:00 PM -14.9212 13.0191 310° West  Level Estimated
Sun 07:59:00 PM -14.8842 12.9738 310° West  Level Estimated
Sun 08:00:00 PM -14.8472 12.9285 310° West  Level Estimated
Sun 08:01:00 PM -14.8101 12.8832 310° West  Level Estimated
Sun 08:02:00 PM -14.7731 12.8380 310° West  Level Estimated
Sun 08:03:00 PM -14.7361 12.7928 310° West  Level Estimated
Sun 08:04:00 PM -14.6990 12.7476 310° West  Level Estimated
Sun 08:05:00 PM -14.6620 12.7023 310° West  Level Estimated
Sun 08:06:00 PM -14.6250 12.6572 310° West  Level Estimated
Sun 08:07:00 PM -14.5879 12.6120 310° West  Level Estimated
Sun 08:08:00 PM -14.5508 12.5668 310° West  Level Estimated
Sun 08:09:00 PM -14.5137 12.5217 310° West  Level Estimated
Sun 08:10:00 PM -14.4766 12.4766 310° West  Level Estimated
Sun 08:11:00 PM -14.4395 12.4315 310° West  Level Estimated
Sun 08:12:00 PM -14.4024 12.3864 310° West  Level Estimated
Sun 08:13:00 PM -14.3653 12.3413 310° West  Level Estimated
Sun 08:14:00 PM -14.3282 12.2962 310° West  Level Estimated
Sun 08:15:00 PM -14.2910 12.2512 310° West  Level Estimated
Sun 08:16:00 PM -14.2539 12.2062 310° West  Level Estimated
Sun 08:17:00 PM -14.2168 12.1611 310° West  Level Estimated
Sun 08:18:00 PM -14.1796 12.1161 310° West  Level Estimated
Sun 08:19:00 PM -14.1424 12.0711 310° West  Level Estimated
Sun 08:20:00 PM -14.1053 12.0262 310° West  Level Estimated
Sun 08:21:00 PM -14.0681 11.9812 310° West  Level Estimated
Sun 08:22:00 PM -14.0309 11.9363 310° West  Level Estimated
Sun 08:23:00 PM -13.9937 11.8913 310° West  Level Estimated
Sun 08:24:00 PM -13.9565 11.8464 310° West  Level Estimated
Sun 08:25:00 PM -13.9192 11.8015 310° West  Level Estimated
Sun 08:26:00 PM -13.8820 11.7566 311° West  Level Estimated
Sun 08:27:00 PM -13.8448 11.7118 311° West  Level Estimated
Sun 08:28:00 PM -13.8075 11.6669 311° West  Level Estimated
Sun 08:29:00 PM -13.7703 11.6221 311° West  Level Estimated
Sun 08:30:00 PM -13.7330 11.5772 311° West  Level Estimated
Sun 08:31:00 PM -13.6958 11.5324 311° West  Level Estimated
Sun 08:32:00 PM -13.6585 11.4876 311° West  Level Estimated
Sun 08:33:00 PM -13.6212 11.4428 311° West  Level Estimated
Sun 08:34:00 PM -13.5839 11.3981 311° West  Level Estimated
Sun 08:35:00 PM -13.5466 11.3533 311° West  Level Estimated
Sun 08:36:00 PM -13.5093 11.3085 311° West  Level Estimated
Sun 08:37:00 PM -13.4720 11.2638 311° West  Level Estimated
Sun 08:38:00 PM -13.4347 11.2191 311° West  Level Estimated
Sun 08:39:00 PM -13.3973 11.1744 311° West  Level Estimated
Sun 08:40:00 PM -13.3600 11.1297 311° West  Level Estimated
Sun 08:41:00 PM -13.3227 11.0850 311° West  Level Estimated
Sun 08:42:00 PM -13.2853 11.0404 311° West  Level Estimated
Sun 08:43:00 PM -13.2479 10.9957 311° West  Level Estimated
Sun 08:44:00 PM -13.2106 10.9511 311° West  Level Estimated
Sun 08:45:00 PM -13.1732 10.9065 311° West  Level Estimated
Sun 08:46:00 PM -13.1358 10.8619 311° West  Level Estimated
Sun 08:47:00 PM -13.0984 10.8173 311° West  Level Estimated
Sun 08:48:00 PM -13.0610 10.7727 311° West  Level Estimated
Sun 08:49:00 PM -13.0236 10.7281 311° West  Level Estimated
Sun 08:50:00 PM -12.9862 10.6836 311° West  Level Estimated
Sun 08:51:00 PM -12.9488 10.6390 311° West  Level Estimated
Sun 08:52:00 PM -12.9113 10.5945 311° West  Level Estimated
Sun 08:53:00 PM -12.8739 10.5500 311° West  Level Estimated
Sun 08:54:00 PM -12.8364 10.5055 311° West  Level Estimated
Sun 08:55:00 PM -12.7990 10.4610 311° West  Level Estimated
Sun 08:56:00 PM -12.7615 10.4165 311° West  Level Estimated
Sun 08:57:00 PM -12.7241 10.3721 311° West  Level Estimated
Sun 08:58:00 PM -12.6866 10.3276 311° West  Level Estimated
Sun 08:59:00 PM -12.6491 10.2832 311° West  Level Estimated
Sun 09:00:00 PM -12.6116 10.2388 311° West  Level Estimated
Sun 09:01:00 PM -12.5741 10.1944 311° West  Level Estimated
Sun 09:02:00 PM -12.5366 10.1500 311° West  Level Estimated
Sun 09:03:00 PM -12.4991 10.1056 311° West  Level Estimated
Sun 09:04:00 PM -12.4616 10.0612 311° West  Level Estimated
Sun 09:05:00 PM -12.4241 10.0169 311° West  Level Estimated
Sun 09:06:00 PM -12.3865 9.9725 311° West  Level Estimated
Sun 09:07:00 PM -12.3490 9.9282 311° West  Level Estimated
Sun 09:08:00 PM -12.3114 9.8839 311° West  Level Estimated
Sun 09:09:00 PM -12.2739 9.8396 311° West  Level Estimated
Sun 09:10:00 PM -12.2363 9.7953 311° West  Level Estimated
Sun 09:11:00 PM -12.1987 9.7510 311° West  Level Estimated
Sun 09:12:00 PM -12.1612 9.7067 311° West  Level Estimated
Sun 09:13:00 PM -12.1236 9.6625 311° West  Level Estimated
Sun 09:14:00 PM -12.0860 9.6182 311° West  Level Estimated
Sun 09:15:00 PM -12.0484 9.5740 311° West  Level Estimated
Sun 09:16:00 PM -12.0108 9.5298 311° West  Level Estimated
Sun 09:17:00 PM -11.9732 9.4856 311° West  Level Estimated
Sun 09:18:00 PM -11.9356 9.4414 311° West  Level Estimated
Sun 09:19:00 PM -11.8979 9.3972 311° West  Level Estimated
Sun 09:20:00 PM -11.8603 9.3530 311° West  Level Estimated
Sun 09:21:00 PM -11.8227 9.3089 311° West  Level Estimated
Sun 09:22:00 PM -11.7850 9.2647 311° West  Level Estimated
Sun 09:23:00 PM -11.7474 9.2206 311° West  Level Estimated
Sun 09:24:00 PM -11.7097 9.1765 311° West  Level Estimated
Sun 09:25:00 PM -11.6721 9.1324 311° West  Level Estimated
Sun 09:26:00 PM -11.6344 9.0883 311° West  Level Estimated
Sun 09:27:00 PM -11.5967 9.0442 311° West  Level Estimated
Sun 09:28:00 PM -11.5590 9.0001 311° West  Level Estimated
Sun 09:29:00 PM -11.5213 8.9561 311° West  Level Estimated
Sun 09:30:00 PM -11.4836 8.9120 311° West  Level Estimated
Sun 09:31:00 PM -11.4459 8.8680 311° West  Level Estimated
Sun 09:32:00 PM -11.4082 8.8240 311° West  Level Estimated
Sun 09:33:00 PM -11.3705 8.7799 311° West  Level Estimated
Sun 09:34:00 PM -11.3328 8.7359 311° West  Level Estimated
Sun 09:35:00 PM -11.2950 8.6919 311° West  Level Estimated
Sun 09:36:00 PM -11.2573 8.6480 311° West  Level Estimated
Sun 09:37:00 PM -11.2195 8.6040 311° West  Level Estimated
Sun 09:38:00 PM -11.1818 8.5601 311° West  Level Estimated
Sun 09:39:00 PM -11.1440 8.5161 311° West  Level Estimated
Sun 09:40:00 PM -11.1063 8.4722 311° West  Level Estimated
Sun 09:41:00 PM -11.0685 8.4283 311° West  Level Estimated
Sun 09:42:00 PM -11.0307 8.3843 311° West  Level Estimated
Sun 09:43:00 PM -10.9929 8.3405 311° West  Level Estimated
Sun 09:44:00 PM -10.9551 8.2966 311° West  Level Estimated
Sun 09:45:00 PM -10.9173 8.2527 311° West  Level Estimated
Sun 09:46:00 PM -10.8795 8.2088 311° West  Level Estimated
Sun 09:47:00 PM -10.8417 8.1650 311° West  Level Estimated
Sun 09:48:00 PM -10.8039 8.1211 311° West  Level Estimated
Sun 09:49:00 PM -10.7661 8.0773 311° West  Level Estimated
Sun 09:50:00 PM -10.7283 8.0335 311° West  Level Estimated
Sun 09:51:00 PM -10.6904 7.9897 311° West  Level Estimated
Sun 09:52:00 PM -10.6526 7.9459 311° West  Level Estimated
Sun 09:53:00 PM -10.6147 7.9021 311° West  Level Estimated
Sun 09:54:00 PM -10.5769 7.8583 311° West  Level Estimated
Sun 09:55:00 PM -10.5390 7.8145 311° West  Level Estimated
Sun 09:56:00 PM -10.5012 7.7708 311° West  Level Estimated
Sun 09:57:00 PM -10.4633 7.7270 311° West  Level Estimated
Sun 09:58:00 PM -10.4254 7.6833 311° West  Level Estimated
Sun 09:59:00 PM -10.3876 7.6396 311° West  Level Estimated
Sun 10:00:00 PM -10.3497 7.5959 311° West  Level Estimated
Sun 10:01:00 PM -10.3118 7.5522 311° West  Level Estimated
Sun 10:02:00 PM -10.2739 7.5085 311° West  Level Estimated
Sun 10:03:00 PM -10.2360 7.4648 311° West  Level Estimated
Sun 10:04:00 PM -10.1980 7.4211 311° West  Level Estimated
Sun 10:05:00 PM -10.1601 7.3775 311° West  Level Estimated
Sun 10:06:00 PM -10.1222 7.3338 311° West  Level Estimated
Sun 10:07:00 PM -10.0843 7.2902 311° West  Level Estimated
Sun 10:08:00 PM -10.0463 7.2465 311° West  Level Estimated
Sun 10:09:00 PM -10.0084 7.2029 311° West  Level Estimated
Sun 10:10:00 PM -9.9705 7.1593 311° West  Level Estimated
Sun 10:11:00 PM -9.9325 7.1157 311° West  Level Estimated
Sun 10:12:00 PM -9.8946 7.0721 311° West  Level Estimated
Sun 10:13:00 PM -9.8566 7.0286 311° West  Level Estimated
Sun 10:14:00 PM -9.8186 6.9850 311° West  Level Estimated
Sun 10:15:00 PM -9.7807 6.9414 311° West  Level Estimated
Sun 10:16:00 PM -9.7427 6.8979 312° West  Level Estimated
Sun 10:17:00 PM -9.7047 6.8543 312° West  Level Estimated
Sun 10:18:00 PM -9.6667 6.8108 312° West  Level Estimated
Sun 10:19:00 PM -9.6287 6.7673 312° West  Level Estimated
Sun 10:20:00 PM -9.5907 6.7238 312° West  Level Estimated
Sun 10:21:00 PM -9.5527 6.6803 312° West  Level Estimated
Sun 10:22:00 PM -9.5147 6.6368 312° West  Level Estimated
Sun 10:23:00 PM -9.4767 6.5933 312° West  Level Estimated
Sun 10:24:00 PM -9.4386 6.5498 312° West  Level Estimated
Sun 10:25:00 PM -9.4006 6.5064 312° West  Level Estimated
Sun 10:26:00 PM -9.3626 6.4629 312° West  Level Estimated
Sun 10:27:00 PM -9.3245 6.4195 312° West  Level Estimated
Sun 10:28:00 PM -9.2865 6.3760 312° West  Level Estimated
Sun 10:29:00 PM -9.2485 6.3326 312° West  Level Estimated
Sun 10:30:00 PM -9.2104 6.2892 312° West  Level Estimated
Sun 10:31:00 PM -9.1723 6.2458 312° West  Level Estimated
Sun 10:32:00 PM -9.1343 6.2024 312° West  Level Estimated
Sun 10:33:00 PM -9.0962 6.1590 312° West  Level Estimated
Sun 10:34:00 PM -9.0581 6.1157 312° West  Level Estimated
Sun 10:35:00 PM -9.0201 6.0723 312° West  Level Estimated
Sun 10:36:00 PM -8.9820 6.0289 312° West  Level Estimated
Sun 10:37:00 PM -8.9439 5.9856 312° West  Level Estimated
Sun 10:38:00 PM -8.9058 5.9422 312° West  Level Estimated
Sun 10:39:00 PM -8.8677 5.8989 312° West  Level Estimated
Sun 10:40:00 PM -8.8296 5.8556 312° West  Level Estimated
Sun 10:41:00 PM -8.7915 5.8123 312° West  Level Estimated
Sun 10:42:00 PM -8.7534 5.7690 312° West  Level Estimated
Sun 10:43:00 PM -8.7152 5.7257 312° West  Level Estimated
Sun 10:44:00 PM -8.6771 5.6824 312° West  Level Estimated
Sun 10:45:00 PM -8.6390 5.6391 312° West  Level Estimated
Sun 10:46:00 PM -8.6008 5.5958 312° West  Level Estimated
Sun 10:47:00 PM -8.5627 5.5526 312° West  Level Estimated
Sun 10:48:00 PM -8.5246 5.5093 312° West  Level Estimated
Sun 10:49:00 PM -8.4864 5.4661 312° West  Level Estimated
Sun 10:50:00 PM -8.4482 5.4229 312° West  Level Estimated
Sun 10:51:00 PM -8.4101 5.3796 312° West  Level Estimated
Sun 10:52:00 PM -8.3719 5.3364 312° West  Level Estimated
Sun 10:53:00 PM -8.3338 5.2932 312° West  Level Estimated
Sun 10:54:00 PM -8.2956 5.2500 312° West  Level Estimated
Sun 10:55:00 PM -8.2574 5.2068 312° West  Level Estimated
Sun 10:56:00 PM -8.2192 5.1636 312° West  Level Estimated
Sun 10:57:00 PM -8.1811 5.1205 312° West  Level Estimated
Sun 10:58:00 PM -8.1429 5.0773 312° West  Level Estimated
Sun 10:59:00 PM -8.1047 5.0341 312° West  Level Estimated
Sun 11:00:00 PM -8.0665 4.9910 312° West  Level Estimated
Sun 11:01:00 PM -8.0283 4.9478 312° West  Level Estimated
Sun 11:02:00 PM -7.9900 4.9047 312° West  Level Estimated
Sun 11:03:00 PM -7.9518 4.8616 312° West  Level Estimated
Sun 11:04:00 PM -7.9136 4.8185 312° West  Level Estimated
Sun 11:05:00 PM -7.8754 4.7754 312° West  Level Estimated
Sun 11:06:00 PM -7.8372 4.7323 312° West  Level Estimated
Sun 11:07:00 PM -7.7989 4.6892 312° West  Level Estimated
Sun 11:08:00 PM -7.7607 4.6461 312° West  Level Estimated
Sun 11:09:00 PM -7.7225 4.6030 312° West  Level Estimated
Sun 11:10:00 PM -7.6842 4.5599 312° West  Level Estimated
Sun 11:11:00 PM -7.6460 4.5169 312° West  Level Estimated
Sun 11:12:00 PM -7.6077 4.4738 312° West  Level Estimated
Sun 11:13:00 PM -7.5695 4.4308 312° West  Level Estimated
Sun 11:14:00 PM -7.5312 4.3877 312° West  Level Estimated
Sun 11:15:00 PM -7.4929 4.3447 312° West  Level Estimated
Sun 11:16:00 PM -7.4547 4.3017 312° West  Level Estimated
Sun 11:17:00 PM -7.4164 4.2586 312° West  Level Estimated
Sun 11:18:00 PM -7.3781 4.2156 312° West  Level Estimated
Sun 11:19:00 PM -7.3398 4.1726 312° West  Level Estimated
Sun 11:20:00 PM -7.3015 4.1296 312° West  Level Estimated
Sun 11:21:00 PM -7.2632 4.0866 312° West  Level Estimated
Sun 11:22:00 PM -7.2250 4.0437 312° West  Level Estimated
Sun 11:23:00 PM -7.1867 4.0007 312° West  Level Estimated
Sun 11:24:00 PM -7.1483 3.9577 312° West  Level Estimated
Sun 11:25:00 PM -7.1101 3.9148 312° West  Level Estimated
Sun 11:26:00 PM -7.0717 3.8718 312° West  Level Estimated
Sun 11:27:00 PM -7.0334 3.8289 312° West  Level Estimated
Sun 11:28:00 PM -6.9951 3.7859 312° West  Level Estimated
Sun 11:29:00 PM -6.9568 3.7430 312° West  Level Estimated
Sun 11:30:00 PM -6.9185 3.7001 312° West  Level Estimated
Sun 11:31:00 PM -6.8801 3.6572 312° West  Level Estimated
Sun 11:32:00 PM -6.8418 3.6143 312° West  Level Estimated
Sun 11:33:00 PM -6.8035 3.5714 312° West  Level Estimated
Sun 11:34:00 PM -6.7651 3.5285 312° West  Level Estimated
Sun 11:35:00 PM -6.7268 3.4856 312° West  Level Estimated
Sun 11:36:00 PM -6.6884 3.4427 312° West  Level Estimated
Sun 11:37:00 PM -6.6501 3.3998 312° West  Level Estimated
Sun 11:38:00 PM -6.6117 3.3570 312° West  Level Estimated
Sun 11:39:00 PM -6.5734 3.3141 312° West  Level Estimated
Sun 11:40:00 PM -6.5350 3.2712 312° West  Level Estimated
Sun 11:41:00 PM -6.4966 3.2284 312° West  Level Estimated
Sun 11:42:00 PM -6.4583 3.1855 312° West  Level Estimated
Sun 11:43:00 PM -6.4199 3.1427 312° West  Level Estimated
Sun 11:44:00 PM -6.3815 3.0999 312° West  Level Estimated
Sun 11:45:00 PM -6.3431 3.0571 312° West  Level Estimated
Sun 11:46:00 PM -6.3047 3.0143 312° West  Level Estimated
Sun 11:47:00 PM -6.2663 2.9714 312° West  Level Estimated
Sun 11:48:00 PM -6.2280 2.9286 312° West  Level Estimated
Sun 11:49:00 PM -6.1896 2.8858 312° West  Level Estimated
Sun 11:50:00 PM -6.1512 2.8431 312° West  Level Estimated
Sun 11:51:00 PM -6.1128 2.8003 312° West  Level Estimated
Sun 11:52:00 PM -6.0744 2.7575 312° West  Level Estimated
Sun 11:53:00 PM -6.0360 2.7147 312° West  Level Estimated
Sun 11:54:00 PM -5.9975 2.6719 312° West  Level Estimated
Sun 11:55:00 PM -5.9591 2.6292 312° West  Level Estimated
Sun 11:56:00 PM -5.9207 2.5864 312° West  Level Estimated
Sun 11:57:00 PM -5.8823 2.5437 312° West  Level Estimated
Sun 11:58:00 PM -5.8439 2.5009 312° West  Level Estimated
Sun 11:59:00 PM -5.8054 2.4582 312° West  Level Estimated
Mon 12:00:00 AM -5.7670 2.4155 312° West  Level Estimated
Mon 12:01:00 AM -5.7286 2.3727 312° West  Level Estimated
Mon 12:02:00 AM -5.6901 2.3300 312° West  Level Estimated
Mon 12:03:00 AM -5.6517 2.2873 312° West  Level Estimated
Mon 12:04:00 AM -5.6132 2.2446 312° West  Level Estimated
Mon 12:05:00 AM -5.5748 2.2019 312° West  Level Estimated
Mon 12:06:00 AM -5.5363 2.1592 312° West  Level Estimated
Mon 12:07:00 AM -5.4979 2.1165 312° West  Level Estimated
Mon 12:08:00 AM -5.4594 2.0738 312° West  Level Estimated
Mon 12:09:00 AM -5.4210 2.0312 312° West  Level Estimated
Mon 12:10:00 AM -5.3825 1.9885 312° West  Level Estimated
Mon 12:11:00 AM -5.3440 1.9458 312° West  Level Estimated
Mon 12:12:00 AM -5.3056 1.9031 312° West  Level Estimated
Mon 12:13:00 AM -5.2671 1.8605 312° West  Level Estimated
Mon 12:14:00 AM -5.2286 1.8178 312° West  Level Estimated
Mon 12:15:00 AM -5.1901 1.7752 312° West  Level Estimated
Mon 12:16:00 AM -5.1517 1.7325 312° West  Level Estimated
Mon 12:17:00 AM -5.1132 1.6899 312° West  Level Estimated
Mon 12:18:00 AM -5.0747 1.6473 312° West  Level Estimated
Mon 12:19:00 AM -5.0362 1.6046 312° West  Level Estimated
Mon 12:20:00 AM -4.9977 1.5620 312° West  Level Estimated
Mon 12:21:00 AM -4.9592 1.5194 312° West  Level Estimated
Mon 12:22:00 AM -4.9207 1.4768 312° West  Level Estimated
Mon 12:23:00 AM -4.8822 1.4342 312° West  Level Estimated
Mon 12:24:00 AM -4.8437 1.3916 312° West  Level Estimated
Mon 12:25:00 AM -4.8052 1.3490 312° West  Level Estimated
Mon 12:26:00 AM -4.7667 1.3064 312° West  Level Estimated
Mon 12:27:00 AM -4.7282 1.2638 312° West  Level Estimated
Mon 12:28:00 AM -4.6897 1.2212 312° West  Level Estimated
Mon 12:29:00 AM -4.6512 1.1786 312° West  Level Estimated
Mon 12:30:00 AM -4.6127 1.1361 312° West  Level Estimated
Mon 12:31:00 AM -4.5742 1.0935 312° West  Level Estimated
Mon 12:32:00 AM -4.5356 1.0509 312° West  Level Estimated
Mon 12:33:00 AM -4.4971 1.0084 312° West  Level Estimated
Mon 12:34:00 AM -4.4586 0.9658 312° West  Level Estimated
Mon 12:35:00 AM -4.4200 0.9233 312° West  Level Estimated
Mon 12:36:00 AM -4.3815 0.8807 312° West  Level Estimated
Mon 12:37:00 AM -4.3430 0.8382 312° West  Level Estimated
Mon 12:38:00 AM -4.3044 0.7956 312° West  Level Estimated
Mon 12:39:00 AM -4.2659 0.7531 312° West  Level Estimated
Mon 12:40:00 AM -4.2274 0.7106 312° West  Level Estimated
Mon 12:41:00 AM -4.1888 0.6680 312° West  Level Estimated
Mon 12:42:00 AM -4.1503 0.6255 312° West  Level Estimated
Mon 12:43:00 AM -4.1117 0.5830 312° West  Level Estimated
Mon 12:44:00 AM -4.0732 0.5405 312° West  Level Estimated
Mon 12:45:00 AM -4.0346 0.4980 312° West  Level Estimated
Mon 12:46:00 AM -3.9960 0.4555 312° West  Level Estimated
Mon 12:47:00 AM -3.9575 0.4130 312° West  Level Estimated
Mon 12:48:00 AM -3.9189 0.3705 312° West  Level Estimated
Mon 12:49:00 AM -3.8804 0.3280 312° West  Level Estimated
Mon 12:50:00 AM -3.8418 0.2855 312° West  Level Estimated
Mon 12:51:00 AM -3.8032 0.2430 312° West  Level Estimated
Mon 12:52:00 AM -3.7647 0.2005 312° West  Level Estimated
Mon 12:53:00 AM -3.7261 0.1581 312° West  Level Estimated
Mon 12:54:00 AM -3.6875 0.1156 312° West  Level Estimated
Mon 12:55:00 AM -3.6490 0.0731 312° West  Level Estimated
Mon 12:56:00 AM -3.6104 0.0306 312° West  Level Estimated
Mon 12:57:00 AM -3.5718 -0.0118 312° West  Level Estimated
Mon 12:58:00 AM -3.5332 -0.0543 312° West  Level Estimated
Mon 12:59:00 AM -3.4946 -0.0967 312° West  Level Estimated
Mon 01:00:00 AM -3.4560 -0.1392 312° West  Level Estimated
Mon 01:01:00 AM -3.4175 -0.1816 312° West  Level Estimated
Mon 01:02:00 AM -3.3789 -0.2241 312° West  Level Estimated
Mon 01:03:00 AM -3.3403 -0.2665 312° West  Level Estimated
Mon 01:04:00 AM -3.3017 -0.3090 312° West  Level Estimated
Mon 01:05:00 AM -3.2631 -0.3514 312° West  Level Estimated
Mon 01:06:00 AM -3.2245 -0.3938 312° West  Level Estimated
Mon 01:07:00 AM -3.1859 -0.4363 312° West  Level Estimated
Mon 01:08:00 AM -3.1473 -0.4787 312° West  Level Estimated
Mon 01:09:00 AM -3.1087 -0.5211 312° West  Level Estimated
Mon 01:10:00 AM -3.0701 -0.5635 312° West  Level Estimated
Mon 01:11:00 AM -3.0315 -0.6059 312° West  Level Estimated
Mon 01:12:00 AM -2.9929 -0.6484 312° West  Level Estimated
Mon 01:13:00 AM -2.9543 -0.6908 312° West  Level Estimated
Mon 01:14:00 AM -2.9157 -0.7332 312° West  Level Estimated
Mon 01:15:00 AM -2.8771 -0.7756 312° West  Level Estimated
Mon 01:16:00 AM -2.8385 -0.8180 312° West  Level Estimated
Mon 01:17:00 AM -2.7998 -0.8604 312° West  Level Estimated
Mon 01:18:00 AM -2.7612 -0.9028 312° West  Level Estimated
Mon 01:19:00 AM -2.7226 -0.9452 312° West  Level Estimated
Mon 01:20:00 AM -2.6840 -0.9876 312° West  Level Estimated
Mon 01:21:00 AM -2.6454 -1.0300 312° West  Level Estimated
Mon 01:22:00 AM -2.6068 -1.0724 312° West  Level Estimated
Mon 01:23:00 AM -2.5681 -1.1147 312° West  Level Estimated
Mon 01:24:00 AM -2.5295 -1.1571 312° West  Level Estimated
Mon 01:25:00 AM -2.4909 -1.1995 312° West  Level Estimated
Mon 01:26:00 AM -2.4523 -1.2419 312° West  Level Estimated
Mon 01:27:00 AM -2.4136 -1.2842 312° West  Level Estimated
Mon 01:28:00 AM -2.3750 -1.3266 312° West  Level Estimated
Mon 01:29:00 AM -2.3364 -1.3690 312° West  Level Estimated
Mon 01:30:00 AM -2.2977 -1.4113 312° West  Level Estimated
Mon 01:31:00 AM -2.2591 -1.4537 312° West  Level Estimated
Mon 01:32:00 AM -2.2205 -1.4961 312° West  Level Estimated
Mon 01:33:00 AM -2.1818 -1.5384 312° West  Level Estimated
Mon 01:34:00 AM -2.1432 -1.5808 312° West  Level Estimated
Mon 01:35:00 AM -2.1046 -1.6231 312° West  Level Estimated
Mon 01:36:00 AM -2.0659 -1.6655 312° West  Level Estimated
Mon 01:37:00 AM -2.0273 -1.7078 312° West  Level Estimated
Mon 01:38:00 AM -1.9886 -1.7502 312° West  Level Estimated
Mon 01:39:00 AM -1.9500 -1.7925 312° West  Level Estimated
Mon 01:40:00 AM -1.9114 -1.8349 312° West  Level Estimated
Mon 01:41:00 AM -1.8727 -1.8772 312° West  Level Estimated
Mon 01:42:00 AM -1.8341 -1.9196 312° West  Level Estimated
Mon 01:43:00 AM -1.7954 -1.9619 312° West  Level Estimated
Mon 01:44:00 AM -1.7568 -2.0042 312° West  Level Estimated
Mon 01:45:00 AM -1.7181 -2.0466 312° West  Level Estimated
Mon 01:46:00 AM -1.6795 -2.0889 312° West  Level Estimated
Mon 01:47:00 AM -1.6408 -2.1312 312° West  Level Estimated
Mon 01:48:00 AM -1.6022 -2.1736 312° West  Level Estimated
Mon 01:49:00 AM -1.5635 -2.2159 312° West  Level Estimated
Mon 01:50:00 AM -1.5249 -2.2582 312° West  Level Estimated
Mon 01:51:00 AM -1.4862 -2.3005 312° West  Level Estimated
Mon 01:52:00 AM -1.4476 -2.3429 312° West  Level Estimated
Mon 01:53:00 AM -1.4089 -2.3852 312° West  Level Estimated
Mon 01:54:00 AM -1.3702 -2.4275 312° West  Level Estimated
Mon 01:55:00 AM -1.3316 -2.4698 312° West  Level Estimated
Mon 01:56:00 AM -1.2929 -2.5122 312° West  Level Estimated
Mon 01:57:00 AM -1.2543 -2.5545 312° West  Level Estimated
Mon 01:58:00 AM -1.2156 -2.5968 312° West  Level Estimated
Mon 01:59:00 AM -1.1769 -2.6391 312° West  Level Estimated
Mon 02:00:00 AM -1.1383 -2.6814 312° West  Level Estimated
Mon 02:01:00 AM -1.0996 -2.7237 312° West  Level Estimated
Mon 02:02:00 AM -1.0610 -2.7661 312° West  Level Estimated
Mon 02:03:00 AM -1.0223 -2.8084 312° West  Level Estimated
Mon 02:04:00 AM -0.9836 -2.8507 312° West  Level Estimated
Mon 02:05:00 AM -0.9450 -2.8930 312° West  Level Estimated
Mon 02:06:00 AM -0.9063 -2.9353 312° West  Level Estimated
Mon 02:07:00 AM -0.8676 -2.9776 312° West  Level Estimated
Mon 02:08:00 AM -0.8290 -3.0199 312° West  Level Estimated
Mon 02:09:00 AM -0.7903 -3.0622 312° West  Level Estimated
Mon 02:10:00 AM -0.7517 -3.1045 312° West  Level Estimated
Mon 02:11:00 AM -0.7130 -3.1468 312° West  Level Estimated
Mon 02:12:00 AM -0.6743 -3.1891 312° West  Level Estimated
Mon 02:13:00 AM -0.6357 -3.2314 312° West  Level Estimated
Mon 02:14:00 AM -0.5970 -3.2737 312° West  Level Estimated
Mon 02:15:00 AM -0.5583 -3.3160 312° West  Level Estimated
Mon 02:16:00 AM -0.5197 -3.3583 312° West  Level Estimated
Mon 02:17:00 AM -0.4810 -3.4006 312° West  Level Estimated
Mon 02:18:00 AM -0.4423 -3.4429 312° West  Level Estimated
Mon 02:19:00 AM -0.4036 -3.4852 312° West  Level Estimated
Mon 02:20:00 AM -0.3650 -3.5275 312° West  Level Estimated
Mon 02:21:00 AM -0.3263 -3.5698 312° West  Level Estimated
Mon 02:22:00 AM -0.2876 -3.6121 312° West  Level Estimated
Mon 02:23:00 AM -0.2490 -3.6544 312° West  Level Estimated
Mon 02:24:00 AM -0.2103 -3.6967 312° West  Level Estimated
Mon 02:25:00 AM -0.1716 -3.7390 312° West  Level Estimated
Mon 02:26:00 AM -0.1330 -3.7813 312° West  Level Estimated
Mon 02:27:00 AM -0.0943 -3.8236 312° West  Level Estimated
Mon 02:28:00 AM -0.0556 -3.8659 312° West  Level Estimated
Mon 02:29:00 AM -0.0170 -3.9082 312° West  Level Estimated
Mon 02:30:00 AM 0.0217 -3.9505 312° West  Level Estimated
Mon 02:31:00 AM 0.0604 -3.9928 312° West  Level Estimated
Mon 02:32:00 AM 0.0991 -4.0351 312° West  Level Estimated
Mon 02:33:00 AM 0.1377 -4.0774 312° West  Level Estimated
Mon 02:34:00 AM 0.1764 -4.1197 312° West  Level Estimated
Mon 02:35:00 AM 0.2151 -4.1620 312° West  Level Estimated
Mon 02:36:00 AM 0.2537 -4.2043 312° West  Level Estimated
Mon 02:37:00 AM 0.2924 -4.2466 312° West  Level Estimated
Mon 02:38:00 AM 0.3311 -4.2889 312° West  Level Estimated
Mon 02:39:00 AM 0.3697 -4.3312 312° West  Level Estimated
Mon 02:40:00 AM 0.4084 -4.3735 312° West  Level Estimated
Mon 02:41:00 AM 0.4471 -4.4158 312° West  Level Estimated
Mon 02:42:00 AM 0.4857 -4.4581 312° West  Level Estimated
Mon 02:43:00 AM 0.5244 -4.5004 312° West  Level Estimated
Mon 02:44:00 AM 0.5631 -4.5427 312° West  Level Estimated
Mon 02:45:00 AM 0.6018 -4.5850 312° West  Level Estimated
Mon 02:46:00 AM 0.6404 -4.6273 312° West  Level Estimated
Mon 02:47:00 AM 0.6791 -4.6696 312° West  Level Estimated
Mon 02:48:00 AM 0.7178 -4.7119 312° West  Level Estimated
Mon 02:49:00 AM 0.7564 -4.7542 312° West  Level Estimated
Mon 02:50:00 AM 0.7951 -4.7965 312° West  Level Estimated
Mon 02:51:00 AM 0.8337 -4.8388 312° West  Level Estimated
Mon 02:52:00 AM 0.8724 -4.8811 312° West  Level Estimated
Mon 02:53:00 AM 0.9111 -4.9234 312° West  Level Estimated
Mon 02:54:00 AM 0.9497 -4.9657 312° West  Level Estimated
Mon 02:55:00 AM 0.9884 -5.0080 312° West  Level Estimated
Mon 02:56:00 AM 1.0271 -5.0503 312° West  Level Estimated
Mon 02:57:00 AM 1.0657 -5.0926 312° West  Level Estimated
Mon 02:58:00 AM 1.1044 -5.1349 312° West  Level Estimated
Mon 02:59:00 AM 1.1430 -5.1772 312° West  Level Estimated
Mon 03:00:00 AM 1.1817 -5.2196 312° West  Level Estimated
Mon 03:01:00 AM 1.2204 -5.2619 312° West  Level Estimated
Mon 03:02:00 AM 1.2590 -5.3042 312° West  Level Estimated
Mon 03:03:00 AM 1.2977 -5.3465 312° West  Level Estimated
Mon 03:04:00 AM 1.3363 -5.3888 312° West  Level Estimated
Mon 03:05:00 AM 1.3750 -5.4311 312° West  Level Estimated
Mon 03:06:00 AM 1.4137 -5.4735 312° West  Level Estimated
Mon 03:07:00 AM 1.4523 -5.5158 312° West  Level Estimated
Mon 03:08:00 AM 1.4910 -5.5581 312° West  Level Estimated
Mon 03:09:00 AM 1.5296 -5.6005 312° West  Level Estimated
Mon 03:10:00 AM 1.5683 -5.6428 312° West  Level Estimated
Mon 03:11:00 AM 1.6069 -5.6851 312° West  Level Estimated
Mon 03:12:00 AM 1.6456 -5.7274 312° West  Level Estimated
Mon 03:12:52 AM 26.1000 -55.1667 305° West 455 524 40,000  Level New York Oceanic (ODAPS)
Mon 03:22:28 AM 26.8000 -56.2833 305° West 454 522 40,000  Level New York Oceanic (ODAPS)
Mon 03:32:05 AM 27.4833 -57.4000 304° West 446 513 40,000  Level New York Oceanic (ODAPS)
Mon 03:41:40 AM 28.1333 -58.4833 303° West 434 499 40,000  Level New York Oceanic (ODAPS)
Mon 03:51:16 AM 28.7667 -59.5833 303° West 425 489 40,000  Level New York Oceanic (ODAPS)
Mon 03:54:57 AM 29.0000 -60.0000 311° West 440 506 40,000  Level New York Oceanic (ODAPS)
Mon 04:01:01 AM 29.4667 -60.6333 311° West 442 509 40,000  Level New York Oceanic (ODAPS)
Mon 04:11:14 AM 30.3236 -61.7328 310° West 465 535 40,000  Level New York Center
Mon 04:12:00 AM 30.3419 -61.8120 310° West 442 509 40,000  Level FlightAware Transoceanic
Mon 04:12:14 AM 30.3947 -61.8478 306° West 451 519 40,000  Level New York Center
Mon 04:13:00 AM 30.4209 -61.9201 310° West 442 509 40,000  Level FlightAware Transoceanic
Mon 04:13:14 AM 30.4669 -61.9486 310° West 451 519 40,000  Level New York Center
Mon 04:14:00 AM 30.4998 -62.0285 310° West 442 509 40,000  Level FlightAware Transoceanic
Mon 04:14:14 AM 30.5508 -62.0725 308° West 451 519 40,000  Level New York Center
Mon 04:15:00 AM 30.5787 -62.1370 310° West 442 509 40,000  Level FlightAware Transoceanic
Mon 04:15:14 AM 30.6375 -62.1772 314° West 451 519 40,000  Level New York Center
Mon 04:16:14 AM 30.7072 -62.2764 309° West 456 525 40,000  Level New York Center
Mon 04:17:14 AM 30.7950 -62.4006 309° West 456 525 40,000  Level New York Center
Mon 04:18:14 AM 30.8647 -62.5047 308° West 456 525 40,000  Level New York Center
Mon 04:19:14 AM 30.9522 -62.6269 310° West 456 525 40,000  Level New York Center
Mon 04:20:14 AM 31.0306 -62.7381 309° West 450 518 40,000  Level New York Center
Mon 04:21:14 AM 31.1039 -62.8378 311° West 455 524 40,000  Level New York Center
Mon 04:22:14 AM 31.1914 -62.9608 310° West 455 524 40,000  Level New York Center
Mon 04:23:14 AM 31.2756 -63.0719 312° West 455 524 40,000  Level New York Center
Mon 04:24:14 AM 31.3469 -63.1772 308° West 455 524 40,000  Level New York Center
Mon 04:25:14 AM 31.4319 -63.3033 308° West 449 517 40,000  Level New York Center
Mon 04:26:14 AM 31.5117 -63.4133 310° West 449 517 40,000  Level New York Center
Mon 04:27:14 AM 31.5803 -63.5144 309° West 449 517 40,000  Level New York Center
Mon 04:28:14 AM 31.6669 -63.6364 310° West 444 511 40,000  Level New York Center
Mon 04:29:14 AM 31.7442 -63.7469 309° West 444 511 40,000  Level New York Center
Mon 04:30:14 AM 31.8128 -63.8486 308° West 449 517 40,000  Level New York Center
Mon 04:31:14 AM 31.8969 -63.9736 308° West 444 511 40,000  Level New York Center
Mon 04:32:14 AM 31.9675 -64.0756 309° West 449 517 40,000  Level New York Center
Mon 04:33:14 AM 32.0514 -64.1964 309° West 442 509 40,000  Level New York Center
Mon 04:34:14 AM 32.1283 -64.3081 309° West 442 509 40,000  Level New York Center
Mon 04:35:14 AM 32.1961 -64.4081 309° West 441 507 40,000  Level New York Center
Mon 04:36:14 AM 32.2797 -64.5319 309° West 441 507 40,000  Level New York Center
Mon 04:37:14 AM 32.3567 -64.6492 308° West 448 516 40,000  Level New York Center
Mon 04:38:14 AM 32.4219 -64.7453 309° West 448 516 40,000  Level New York Center
Mon 04:39:14 AM 32.5014 -64.8722 307° West 462 532 40,000  Level New York Center
Mon 04:40:14 AM 32.5828 -64.9997 307° West 444 511 40,000  Level New York Center
Mon 04:41:14 AM 32.6569 -65.1153 307° West 439 505 40,000  Level New York Center
Mon 04:42:14 AM 32.7225 -65.2219 306° West 439 505 40,000  Level New York Center
Mon 04:43:14 AM 32.8036 -65.3522 307° West 439 505 40,000  Level New York Center
Mon 04:44:14 AM 32.8686 -65.4569 306° West 439 505 40,000  Level New York Center
Mon 04:45:14 AM 32.9514 -65.5825 308° West 439 505 40,000  Level New York Center
Mon 04:46:14 AM 33.0253 -65.6994 307° West 439 505 40,000  Level New York Center
Mon 04:47:14 AM 33.0900 -65.8044 306° West 439 505 40,000  Level New York Center
Mon 04:48:14 AM 33.1683 -65.9361 305° West 439 505 40,000  Level New York Center
Mon 04:49:14 AM 33.2419 -66.0508 308° West 432 497 40,000  Level New York Center
Mon 04:50:14 AM 33.3106 -66.1589 307° West 439 505 40,000  Level New York Center
Mon 04:51:14 AM 33.3908 -66.2911 306° West 448 516 40,000  Level New York Center
Mon 04:52:14 AM 33.4622 -66.4192 304° West 455 524 40,000  Level New York Center
Mon 04:53:14 AM 33.5306 -66.5225 308° West 463 533 40,000  Level New York Center
Mon 04:54:14 AM 33.6125 -66.6581 306° West 457 526 40,000  Level New York Center
Mon 04:55:14 AM 33.6856 -66.7842 305° West 463 533 40,000  Level New York Center
Mon 04:56:14 AM 33.7561 -66.8956 307° West 463 533 40,000  Level New York Center
Mon 04:57:14 AM 33.8417 -67.0314 307° West 469 540 40,000  Level New York Center
Mon 04:58:14 AM 33.9078 -67.1486 304° West 469 540 40,000  Level New York Center
Mon 04:59:14 AM 33.9933 -67.2900 306° West 474 545 40,000  Level New York Center
Mon 05:00:14 AM 34.0719 -67.4144 307° West 479 551 40,000  Level New York Center
Mon 05:01:14 AM 34.1442 -67.5319 307° West 484 557 40,000  Level New York Center
Mon 05:02:14 AM 34.2475 -67.6586 315° West 478 550 40,000  Level New York Center
Mon 05:09:14 AM 35.0000 -68.3667 323° Northwest 488 562 40,000  Level New York Oceanic (ODAPS)
Mon 05:18:51 AM 36.0500 -69.3500 322° Northwest 456 525 40,000  Level New York Oceanic (ODAPS)
Mon 05:21:40 AM 36.1667 -69.4500 322° Northwest 495 570 40,000  Level New York Oceanic (ODAPS)
Mon 05:22:46 AM 36.1667 -69.4500 322° Northwest 495 570 40,000  Level New York Oceanic (ODAPS)
Mon 05:29:50 AM 37.2703 -70.4978 330° Northwest 471 542 40,000  Level New York Center
Mon 05:30:00 AM 37.2758 -70.5388 321° Northwest 495 570 40,000  Level FlightAware Transoceanic
Mon 05:30:50 AM 37.3747 -70.6072 320° Northwest 473 544 40,000  Level New York Center
Mon 05:31:00 AM 37.3862 -70.6495 321° Northwest 495 570 40,000  Level FlightAware Transoceanic
Mon 05:31:50 AM 37.4789 -70.7197 319° Northwest 481 554 40,000  Level New York Center
Mon 05:32:00 AM 37.4965 -70.7604 321° Northwest 495 570 40,000  Level FlightAware Transoceanic
Mon 05:32:50 AM 37.5750 -70.8325 317° Northwest 481 554 40,000  Level New York Center
Mon 05:33:00 AM 37.6066 -70.8717 321° Northwest 495 570 40,000  Level FlightAware Transoceanic
Mon 05:33:50 AM 37.6769 -70.9453 319° Northwest 481 554 40,000  Level New York Center
Mon 05:34:00 AM 37.7167 -70.9833 330° Northwest 495 570 40,000  Level FlightAware Transoceanic
Mon 05:34:50 AM 37.7725 -71.0667 315° West 486 559 40,000  Level New York Center
Mon 05:35:50 AM 37.8722 -71.1828 317° Northwest 486 559 40,000  Level New York Center
Mon 05:36:50 AM 37.9678 -71.3125 313° West 486 559 40,000  Level New York Center
Mon 05:37:50 AM 38.0672 -71.4239 319° Northwest 486 559 40,000  Level New York Center
Mon 05:38:50 AM 38.1667 -71.5386 318° Northwest 486 559 40,000  Level New York Center
Mon 05:39:50 AM 38.2636 -71.6561 316° Northwest 480 552 40,000  Level New York Center
Mon 05:40:50 AM 38.3628 -71.7792 316° Northwest 480 552 40,000 -350 Level New York Center
Mon 05:41:50 AM 38.4617 -71.8972 317° Northwest 480 552 39,300 -1,650 Descending New York Center
Mon 05:42:50 AM 38.5606 -72.0208 316° Northwest 485 558 36,700 -2,200 Descending New York Center
Mon 05:43:50 AM 38.6572 -72.1344 317° Northwest 477 549 34,900 -1,850 Descending New York Center
Mon 05:44:50 AM 38.7456 -72.2531 314° West 470 541 33,000 -1,850 Descending New York Center
Mon 05:45:50 AM 38.8378 -72.3619 317° Northwest 470 541 31,200 -1,850 Descending New York Center
Mon 05:46:50 AM 38.9258 -72.4758 315° West 452 520 29,300 -1,900 Descending New York Center
Mon 05:47:50 AM 39.0119 -72.5794 317° Northwest 441 507 27,400 -1,950 Descending New York Center
Mon 05:48:50 AM 39.0978 -72.6914 315° West 435 501 25,400 -1,950 Descending New York Center
Mon 05:49:50 AM 39.1775 -72.7872 317° Northwest 418 481 23,500 -1,900 Descending New York Center
Mon 05:50:50 AM 39.2589 -72.8917 315° West 411 473 21,600 -1,900 Descending New York Center
Mon 05:51:50 AM 39.3344 -72.9850 316° Northwest 392 451 19,700 -1,750 Descending New York Center
Mon 05:52:50 AM 39.4053 -73.0842 313° West 381 438 18,100 -2,150 Descending New York Center
Mon 05:53:50 AM 39.4786 -73.1672 319° Northwest 366 421 15,400 -2,100 Descending New York Center
Mon 05:54:50 AM 39.5539 -73.2642 315° West 360 414 13,900 -1,100 Descending New York Center
Mon 05:55:50 AM 39.6186 -73.3500 314° West 342 394 13,200 -750 Descending New York Center
Mon 05:56:50 AM 39.6817 -73.4278 317° Northwest 330 380 12,400 -800 Descending New York Center
Mon 05:57:50 AM 39.7381 -73.5028 314° West 323 372 11,600 -850 Descending New York Center
Mon 05:58:50 AM 39.7989 -73.5808 315° West 323 372 10,700 -800 Descending New York Center
Mon 05:59:50 AM 39.8575 -73.6561 315° West 313 360 10,000 -550 Descending New York Center
Mon 06:00:50 AM 39.9119 -73.7289 314° West 294 338 9,600 -450 Descending New York Center
Mon 06:01:50 AM 39.9775 -73.7750 332° Northwest 280 322 9,100 -300 Descending New York Center
Mon 06:02:50 AM 40.0539 -73.8053 343° North 258 297 9,000 -347 Descending New York Center
Mon 06:03:51 AM 40.1192 -73.7811 16° North 229 264 8,400 -700 Descending New York Center
Mon 06:04:50 AM 40.1742 -73.7428 28° Northeast 235 270 7,600 -908 Descending New York Center
Mon 06:05:50 AM 40.2419 -73.6967 27° Northeast 241 277 6,600 -950 Descending New York Center
Mon 06:06:50 AM 40.2950 -73.6608 27° Northeast 251 289 5,700 -900 Descending New York Center
Mon 06:07:50 AM 40.3608 -73.6147 28° Northeast 246 283 4,800 -700 Descending New York Center
Mon 06:08:50 AM 40.4072 -73.5867 25° Northeast 219 252 4,300 -621 Descending New York Center
Mon 06:09:46 AM 40.4500 -73.5500 33° Northeast 188 216 3,600 -600 Descending New York TRACON
Mon 06:10:40 AM 40.5000 -73.5333 14° North 189 217 3,200 -250 Descending New York TRACON
Mon 06:11:46 AM 40.5500 -73.5667 333° Northwest 171 197 3,100 -143 Descending New York TRACON
Mon 06:12:46 AM 40.5667 -73.6000 303° West 166 191 2,900 -500 Descending New York TRACON
Mon 06:13:34 AM 40.5833 -73.6500 294° West 157 181 2,200 -778 Descending New York TRACON
Mon 06:14:34 AM 40.6167 -73.6833 323° Northwest 132 152 1,500 -750 Descending New York TRACON
Mon 06:15:34 AM 40.6333 -73.7333 294° West 135 155 700 -800 Descending New York TRACON
Mon 06:17:00 AM 40.6333 -73.7667 North  Level FlightAware Approximate
Mon 06:24:00 AM 40.6398 -73.7789 North  Level Estimated
Mon 06:25:00 AM 40.6398 -73.7789 North  Level Estimated

Login

Don't have an account? Register now (free) for customized features, flight alerts, and more!